sensor_id;sensor_type;location;lat;lon;timestamp;P1;durP1;ratioP1;P2;durP2;ratioP2
71238;SDS011;61342;51.442;7.370;2023-02-20T00:00:15;4.17;;;3.10;;
71238;SDS011;61342;51.442;7.370;2023-02-20T00:01:19;3.73;;;3.17;;
71238;SDS011;61342;51.442;7.370;2023-02-20T00:02:21;3.93;;;3.47;;
71238;SDS011;61342;51.442;7.370;2023-02-20T00:03:21;5.63;;;3.00;;
71238;SDS011;61342;51.442;7.370;2023-02-20T00:04:21;4.63;;;3.47;;
71238;SDS011;61342;51.442;7.370;2023-02-20T00:05:22;6.10;;;3.03;;
71238;SDS011;61342;51.442;7.370;2023-02-20T00:06:22;3.70;;;3.33;;
71238;SDS011;61342;51.442;7.370;2023-02-20T00:07:23;4.90;;;3.67;;
71238;SDS011;61342;51.442;7.370;2023-02-20T00:08:23;7.20;;;3.70;;
71238;SDS011;61342;51.442;7.370;2023-02-20T00:09:23;5.53;;;3.63;;
71238;SDS011;61342;51.442;7.370;2023-02-20T00:10:24;7.87;;;3.83;;
71238;SDS011;61342;51.442;7.370;2023-02-20T00:11:24;6.40;;;4.00;;
71238;SDS011;61342;51.442;7.370;2023-02-20T00:12:25;5.00;;;4.03;;
71238;SDS011;61342;51.442;7.370;2023-02-20T00:13:25;5.17;;;4.33;;
71238;SDS011;61342;51.442;7.370;2023-02-20T00:14:26;7.33;;;4.17;;
71238;SDS011;61342;51.442;7.370;2023-02-20T00:15:26;5.63;;;4.10;;
71238;SDS011;61342;51.442;7.370;2023-02-20T00:16:27;7.57;;;4.83;;
71238;SDS011;61342;51.442;7.370;2023-02-20T00:17:27;6.63;;;4.70;;
71238;SDS011;61342;51.442;7.370;2023-02-20T00:18:27;6.33;;;4.80;;
71238;SDS011;61342;51.442;7.370;2023-02-20T00:19:28;5.23;;;4.33;;
71238;SDS011;61342;51.442;7.370;2023-02-20T00:20:28;6.33;;;5.20;;
71238;SDS011;61342;51.442;7.370;2023-02-20T00:21:29;6.90;;;4.50;;
71238;SDS011;61342;51.442;7.370;2023-02-20T00:22:29;9.53;;;5.07;;
71238;SDS011;61342;51.442;7.370;2023-02-20T00:23:31;8.50;;;5.30;;
71238;SDS011;61342;51.442;7.370;2023-02-20T00:24:32;7.47;;;5.63;;
71238;SDS011;61342;51.442;7.370;2023-02-20T00:25:32;7.63;;;5.43;;
71238;SDS011;61342;51.442;7.370;2023-02-20T00:26:32;7.50;;;6.03;;
71238;SDS011;61342;51.442;7.370;2023-02-20T00:27:32;9.13;;;5.90;;
71238;SDS011;61342;51.442;7.370;2023-02-20T00:28:33;7.73;;;5.50;;
71238;SDS011;61342;51.442;7.370;2023-02-20T00:29:33;8.07;;;5.13;;
71238;SDS011;61342;51.442;7.370;2023-02-20T00:30:33;10.47;;;6.40;;
71238;SDS011;61342;51.442;7.370;2023-02-20T00:31:34;11.80;;;5.90;;
71238;SDS011;61342;51.442;7.370;2023-02-20T00:32:34;10.07;;;6.60;;
71238;SDS011;61342;51.442;7.370;2023-02-20T00:33:34;7.20;;;5.33;;
71238;SDS011;61342;51.442;7.370;2023-02-20T00:34:35;10.20;;;5.93;;
71238;SDS011;61342;51.442;7.370;2023-02-20T00:35:36;11.57;;;6.70;;
71238;SDS011;61342;51.442;7.370;2023-02-20T00:36:37;13.43;;;7.17;;
71238;SDS011;61342;51.442;7.370;2023-02-20T00:37:38;10.03;;;7.23;;
71238;SDS011;61342;51.442;7.370;2023-02-20T00:38:39;15.80;;;6.90;;
71238;SDS011;61342;51.442;7.370;2023-02-20T00:39:41;11.57;;;7.47;;
71238;SDS011;61342;51.442;7.370;2023-02-20T00:40:42;11.70;;;7.47;;
71238;SDS011;61342;51.442;7.370;2023-02-20T00:41:42;11.10;;;6.93;;
71238;SDS011;61342;51.442;7.370;2023-02-20T00:42:43;8.50;;;6.83;;
71238;SDS011;61342;51.442;7.370;2023-02-20T00:43:43;10.87;;;7.27;;
71238;SDS011;61342;51.442;7.370;2023-02-20T00:44:43;11.93;;;7.13;;
71238;SDS011;61342;51.442;7.370;2023-02-20T00:45:44;12.87;;;7.93;;
71238;SDS011;61342;51.442;7.370;2023-02-20T00:46:44;12.57;;;8.30;;
71238;SDS011;61342;51.442;7.370;2023-02-20T00:47:44;13.23;;;8.37;;
71238;SDS011;61342;51.442;7.370;2023-02-20T00:48:45;11.97;;;8.23;;
71238;SDS011;61342;51.442;7.370;2023-02-20T00:49:45;13.77;;;8.30;;
71238;SDS011;61342;51.442;7.370;2023-02-20T00:50:46;11.87;;;8.00;;
71238;SDS011;61342;51.442;7.370;2023-02-20T00:51:46;13.70;;;8.77;;
71238;SDS011;61342;51.442;7.370;2023-02-20T00:52:47;15.63;;;8.93;;
71238;SDS011;61342;51.442;7.370;2023-02-20T00:53:47;13.27;;;8.00;;
71238;SDS011;61342;51.442;7.370;2023-02-20T00:54:47;14.70;;;9.03;;
71238;SDS011;61342;51.442;7.370;2023-02-20T00:55:47;16.13;;;9.03;;
71238;SDS011;61342;51.442;7.370;2023-02-20T00:56:48;16.10;;;9.13;;
71238;SDS011;61342;51.442;7.370;2023-02-20T00:57:48;14.17;;;9.33;;
71238;SDS011;61342;51.442;7.370;2023-02-20T00:58:48;13.50;;;8.60;;
71238;SDS011;61342;51.442;7.370;2023-02-20T00:59:49;16.30;;;9.90;;
71238;SDS011;61342;51.442;7.370;2023-02-20T01:00:50;15.50;;;9.63;;
71238;SDS011;61342;51.442;7.370;2023-02-20T01:01:50;16.43;;;9.63;;
71238;SDS011;61342;51.442;7.370;2023-02-20T01:02:51;15.20;;;9.60;;
71238;SDS011;61342;51.442;7.370;2023-02-20T01:03:52;19.60;;;10.37;;
71238;SDS011;61342;51.442;7.370;2023-02-20T01:04:52;17.90;;;10.93;;
71238;SDS011;61342;51.442;7.370;2023-02-20T01:05:52;14.60;;;10.57;;
71238;SDS011;61342;51.442;7.370;2023-02-20T01:06:53;18.63;;;10.60;;
71238;SDS011;61342;51.442;7.370;2023-02-20T01:07:53;15.60;;;9.97;;
71238;SDS011;61342;51.442;7.370;2023-02-20T01:08:53;18.33;;;11.10;;
71238;SDS011;61342;51.442;7.370;2023-02-20T01:09:54;15.73;;;10.70;;
71238;SDS011;61342;51.442;7.370;2023-02-20T01:10:54;16.13;;;10.40;;
71238;SDS011;61342;51.442;7.370;2023-02-20T01:11:54;13.53;;;10.03;;
71238;SDS011;61342;51.442;7.370;2023-02-20T01:12:55;17.20;;;10.53;;
71238;SDS011;61342;51.442;7.370;2023-02-20T01:13:55;21.43;;;11.20;;
71238;SDS011;61342;51.442;7.370;2023-02-20T01:14:55;16.13;;;10.20;;
71238;SDS011;61342;51.442;7.370;2023-02-20T01:15:56;17.93;;;10.60;;
71238;SDS011;61342;51.442;7.370;2023-02-20T01:16:56;17.17;;;10.53;;
71238;SDS011;61342;51.442;7.370;2023-02-20T01:17:57;19.57;;;11.33;;
71238;SDS011;61342;51.442;7.370;2023-02-20T01:18:57;17.80;;;11.50;;
71238;SDS011;61342;51.442;7.370;2023-02-20T01:19:58;17.47;;;10.77;;
71238;SDS011;61342;51.442;7.370;2023-02-20T01:20:58;19.07;;;11.93;;
71238;SDS011;61342;51.442;7.370;2023-02-20T01:21:59;16.17;;;11.10;;
71238;SDS011;61342;51.442;7.370;2023-02-20T01:22:59;17.80;;;11.40;;
71238;SDS011;61342;51.442;7.370;2023-02-20T01:24:00;18.83;;;12.13;;
71238;SDS011;61342;51.442;7.370;2023-02-20T01:25:00;20.23;;;12.53;;
71238;SDS011;61342;51.442;7.370;2023-02-20T01:26:01;19.20;;;11.57;;
71238;SDS011;61342;51.442;7.370;2023-02-20T01:27:01;17.80;;;11.97;;
71238;SDS011;61342;51.442;7.370;2023-02-20T01:28:01;20.90;;;11.67;;
71238;SDS011;61342;51.442;7.370;2023-02-20T01:29:02;17.50;;;12.03;;
71238;SDS011;61342;51.442;7.370;2023-02-20T01:30:03;18.80;;;11.03;;
71238;SDS011;61342;51.442;7.370;2023-02-20T01:31:04;20.77;;;12.30;;
71238;SDS011;61342;51.442;7.370;2023-02-20T01:32:06;20.23;;;12.23;;
71238;SDS011;61342;51.442;7.370;2023-02-20T01:33:09;19.80;;;11.77;;
71238;SDS011;61342;51.442;7.370;2023-02-20T01:34:09;18.97;;;11.10;;
71238;SDS011;61342;51.442;7.370;2023-02-20T01:35:10;20.70;;;12.40;;
71238;SDS011;61342;51.442;7.370;2023-02-20T01:36:10;19.57;;;12.27;;
71238;SDS011;61342;51.442;7.370;2023-02-20T01:37:14;18.83;;;11.23;;
71238;SDS011;61342;51.442;7.370;2023-02-20T01:38:14;21.70;;;12.17;;
71238;SDS011;61342;51.442;7.370;2023-02-20T01:39:18;18.47;;;11.53;;
71238;SDS011;61342;51.442;7.370;2023-02-20T01:40:20;18.00;;;11.43;;
71238;SDS011;61342;51.442;7.370;2023-02-20T01:41:23;22.50;;;11.57;;
71238;SDS011;61342;51.442;7.370;2023-02-20T01:42:25;15.13;;;10.40;;
71238;SDS011;61342;51.442;7.370;2023-02-20T01:43:29;17.80;;;11.70;;
71238;SDS011;61342;51.442;7.370;2023-02-20T01:44:33;17.00;;;11.80;;
71238;SDS011;61342;51.442;7.370;2023-02-20T01:45:36;17.63;;;11.03;;
71238;SDS011;61342;51.442;7.370;2023-02-20T01:47:38;17.63;;;10.40;;
71238;SDS011;61342;51.442;7.370;2023-02-20T01:48:39;18.50;;;11.67;;
71238;SDS011;61342;51.442;7.370;2023-02-20T01:49:43;17.43;;;10.10;;
71238;SDS011;61342;51.442;7.370;2023-02-20T01:50:47;17.67;;;11.23;;
71238;SDS011;61342;51.442;7.370;2023-02-20T01:51:52;17.60;;;11.37;;
71238;SDS011;61342;51.442;7.370;2023-02-20T01:53:00;17.70;;;10.93;;
71238;SDS011;61342;51.442;7.370;2023-02-20T01:54:04;17.37;;;11.27;;
71238;SDS011;61342;51.442;7.370;2023-02-20T01:55:08;15.03;;;10.27;;
71238;SDS011;61342;51.442;7.370;2023-02-20T01:56:12;16.53;;;10.20;;
71238;SDS011;61342;51.442;7.370;2023-02-20T01:57:13;18.07;;;10.50;;
71238;SDS011;61342;51.442;7.370;2023-02-20T01:58:21;16.93;;;10.07;;
71238;SDS011;61342;51.442;7.370;2023-02-20T01:59:26;14.37;;;9.63;;
71238;SDS011;61342;51.442;7.370;2023-02-20T02:00:30;16.17;;;10.13;;
71238;SDS011;61342;51.442;7.370;2023-02-20T02:01:32;14.07;;;10.03;;
71238;SDS011;61342;51.442;7.370;2023-02-20T02:02:33;16.37;;;10.07;;
71238;SDS011;61342;51.442;7.370;2023-02-20T02:03:38;14.03;;;9.47;;
71238;SDS011;61342;51.442;7.370;2023-02-20T02:04:42;15.43;;;10.00;;
71238;SDS011;61342;51.442;7.370;2023-02-20T02:05:45;16.40;;;9.90;;
71238;SDS011;61342;51.442;7.370;2023-02-20T02:06:50;18.63;;;10.20;;
71238;SDS011;61342;51.442;7.370;2023-02-20T02:07:53;15.13;;;9.90;;
71238;SDS011;61342;51.442;7.370;2023-02-20T02:08:55;12.53;;;9.30;;
71238;SDS011;61342;51.442;7.370;2023-02-20T02:10:03;16.23;;;9.70;;
71238;SDS011;61342;51.442;7.370;2023-02-20T02:11:08;14.30;;;9.67;;
71238;SDS011;61342;51.442;7.370;2023-02-20T02:12:14;14.93;;;8.93;;
71238;SDS011;61342;51.442;7.370;2023-02-20T02:13:15;13.83;;;9.07;;
71238;SDS011;61342;51.442;7.370;2023-02-20T02:14:15;16.83;;;9.70;;
71238;SDS011;61342;51.442;7.370;2023-02-20T02:15:16;11.60;;;8.77;;
71238;SDS011;61342;51.442;7.370;2023-02-20T02:23:09;12.90;;;8.70;;
71238;SDS011;61342;51.442;7.370;2023-02-20T02:36:53;16.83;;;9.63;;
71238;SDS011;61342;51.442;7.370;2023-02-20T02:38:04;14.67;;;9.80;;
71238;SDS011;61342;51.442;7.370;2023-02-20T02:39:20;15.97;;;9.83;;
71238;SDS011;61342;51.442;7.370;2023-02-20T02:40:41;17.13;;;9.30;;
71238;SDS011;61342;51.442;7.370;2023-02-20T02:41:55;16.23;;;10.13;;
71238;SDS011;61342;51.442;7.370;2023-02-20T02:45:39;14.30;;;9.30;;
71238;SDS011;61342;51.442;7.370;2023-02-20T02:47:50;15.23;;;10.10;;
71238;SDS011;61342;51.442;7.370;2023-02-20T02:48:54;14.50;;;10.23;;
71238;SDS011;61342;51.442;7.370;2023-02-20T02:50:20;17.63;;;9.77;;
71238;SDS011;61342;51.442;7.370;2023-02-20T02:51:25;14.63;;;9.80;;
71238;SDS011;61342;51.442;7.370;2023-02-20T02:52:28;16.10;;;10.37;;
71238;SDS011;61342;51.442;7.370;2023-02-20T02:54:04;14.03;;;9.53;;
71238;SDS011;61342;51.442;7.370;2023-02-20T02:55:17;16.37;;;10.63;;
71238;SDS011;61342;51.442;7.370;2023-02-20T02:56:31;15.20;;;9.47;;
71238;SDS011;61342;51.442;7.370;2023-02-20T02:57:33;17.93;;;10.37;;
71238;SDS011;61342;51.442;7.370;2023-02-20T02:58:34;15.13;;;9.93;;
71238;SDS011;61342;51.442;7.370;2023-02-20T02:59:34;14.13;;;10.27;;
71238;SDS011;61342;51.442;7.370;2023-02-20T03:00:45;17.57;;;10.20;;
71238;SDS011;61342;51.442;7.370;2023-02-20T03:01:56;16.40;;;10.27;;
71238;SDS011;61342;51.442;7.370;2023-02-20T03:04:12;16.83;;;9.90;;
71238;SDS011;61342;51.442;7.370;2023-02-20T03:05:14;16.53;;;10.50;;
71238;SDS011;61342;51.442;7.370;2023-02-20T03:06:20;16.13;;;9.37;;
71238;SDS011;61342;51.442;7.370;2023-02-20T03:07:28;18.97;;;11.00;;
71238;SDS011;61342;51.442;7.370;2023-02-20T03:08:52;13.83;;;9.60;;
71238;SDS011;61342;51.442;7.370;2023-02-20T03:10:02;18.47;;;10.13;;
71238;SDS011;61342;51.442;7.370;2023-02-20T03:11:07;15.47;;;9.67;;
71238;SDS011;61342;51.442;7.370;2023-02-20T03:12:11;18.27;;;10.53;;
71238;SDS011;61342;51.442;7.370;2023-02-20T03:13:12;18.47;;;10.60;;
71238;SDS011;61342;51.442;7.370;2023-02-20T03:14:16;15.40;;;9.93;;
71238;SDS011;61342;51.442;7.370;2023-02-20T03:15:40;14.43;;;9.30;;
71238;SDS011;61342;51.442;7.370;2023-02-20T03:19:28;15.90;;;9.13;;
71238;SDS011;61342;51.442;7.370;2023-02-20T03:20:35;16.07;;;8.90;;
71238;SDS011;61342;51.442;7.370;2023-02-20T03:21:39;16.50;;;9.93;;
71238;SDS011;61342;51.442;7.370;2023-02-20T03:22:58;15.23;;;9.07;;
71238;SDS011;61342;51.442;7.370;2023-02-20T03:23:59;16.03;;;9.27;;
71238;SDS011;61342;51.442;7.370;2023-02-20T03:25:10;15.47;;;9.53;;
71238;SDS011;61342;51.442;7.370;2023-02-20T03:26:15;16.03;;;9.23;;
71238;SDS011;61342;51.442;7.370;2023-02-20T03:28:26;15.53;;;9.40;;
71238;SDS011;61342;51.442;7.370;2023-02-20T03:29:37;13.83;;;8.70;;
71238;SDS011;61342;51.442;7.370;2023-02-20T03:30:46;15.00;;;9.07;;
71238;SDS011;61342;51.442;7.370;2023-02-20T03:31:55;15.63;;;10.00;;
71238;SDS011;61342;51.442;7.370;2023-02-20T03:33:19;13.60;;;8.47;;
71238;SDS011;61342;51.442;7.370;2023-02-20T03:34:42;12.17;;;8.90;;
71238;SDS011;61342;51.442;7.370;2023-02-20T03:36:04;16.43;;;9.03;;
71238;SDS011;61342;51.442;7.370;2023-02-20T03:37:27;17.33;;;9.33;;
71238;SDS011;61342;51.442;7.370;2023-02-20T03:38:51;14.47;;;9.13;;
71238;SDS011;61342;51.442;7.370;2023-02-20T03:40:33;14.40;;;8.73;;
71238;SDS011;61342;51.442;7.370;2023-02-20T03:41:55;13.70;;;8.50;;
71238;SDS011;61342;51.442;7.370;2023-02-20T03:43:17;15.93;;;9.03;;
71238;SDS011;61342;51.442;7.370;2023-02-20T03:44:27;15.63;;;9.90;;
71238;SDS011;61342;51.442;7.370;2023-02-20T03:45:30;14.50;;;8.83;;
71238;SDS011;61342;51.442;7.370;2023-02-20T03:46:32;15.07;;;9.30;;
71238;SDS011;61342;51.442;7.370;2023-02-20T03:47:38;19.00;;;9.80;;
71238;SDS011;61342;51.442;7.370;2023-02-20T03:48:49;12.47;;;8.83;;
71238;SDS011;61342;51.442;7.370;2023-02-20T03:49:54;14.17;;;9.13;;
71238;SDS011;61342;51.442;7.370;2023-02-20T03:50:56;12.33;;;9.10;;
71238;SDS011;61342;51.442;7.370;2023-02-20T03:52:16;12.90;;;8.43;;
71238;SDS011;61342;51.442;7.370;2023-02-20T03:53:17;14.03;;;8.83;;
71238;SDS011;61342;51.442;7.370;2023-02-20T03:54:18;18.20;;;9.53;;
71238;SDS011;61342;51.442;7.370;2023-02-20T03:55:19;15.63;;;9.03;;
71238;SDS011;61342;51.442;7.370;2023-02-20T03:56:20;15.90;;;9.00;;
71238;SDS011;61342;51.442;7.370;2023-02-20T03:57:28;13.40;;;8.73;;
71238;SDS011;61342;51.442;7.370;2023-02-20T03:58:33;15.57;;;8.77;;
71238;SDS011;61342;51.442;7.370;2023-02-20T03:59:53;17.03;;;9.50;;
71238;SDS011;61342;51.442;7.370;2023-02-20T04:00:57;16.20;;;9.33;;
71238;SDS011;61342;51.442;7.370;2023-02-20T04:02:06;15.60;;;8.67;;
71238;SDS011;61342;51.442;7.370;2023-02-20T04:03:21;14.13;;;8.57;;
71238;SDS011;61342;51.442;7.370;2023-02-20T04:04:29;16.37;;;9.40;;
71238;SDS011;61342;51.442;7.370;2023-02-20T04:05:37;16.90;;;8.57;;
71238;SDS011;61342;51.442;7.370;2023-02-20T04:06:41;13.37;;;8.27;;
71238;SDS011;61342;51.442;7.370;2023-02-20T04:07:46;16.57;;;9.27;;
71238;SDS011;61342;51.442;7.370;2023-02-20T04:08:53;15.13;;;9.37;;
71238;SDS011;61342;51.442;7.370;2023-02-20T04:09:59;18.83;;;10.00;;
71238;SDS011;61342;51.442;7.370;2023-02-20T04:11:11;15.73;;;9.73;;
71238;SDS011;61342;51.442;7.370;2023-02-20T04:12:25;16.47;;;9.50;;
71238;SDS011;61342;51.442;7.370;2023-02-20T04:13:28;17.60;;;9.30;;
71238;SDS011;61342;51.442;7.370;2023-02-20T04:14:30;15.17;;;8.87;;
71238;SDS011;61342;51.442;7.370;2023-02-20T04:15:31;16.97;;;9.40;;
71238;SDS011;61342;51.442;7.370;2023-02-20T04:16:33;16.63;;;9.07;;
71238;SDS011;61342;51.442;7.370;2023-02-20T04:19:12;15.03;;;9.20;;
71238;SDS011;61342;51.442;7.370;2023-02-20T04:20:13;16.77;;;9.27;;
71238;SDS011;61342;51.442;7.370;2023-02-20T04:21:20;12.83;;;8.43;;
71238;SDS011;61342;51.442;7.370;2023-02-20T04:22:24;15.13;;;8.83;;
71238;SDS011;61342;51.442;7.370;2023-02-20T04:23:28;16.97;;;8.90;;
71238;SDS011;61342;51.442;7.370;2023-02-20T04:24:43;14.30;;;8.97;;
71238;SDS011;61342;51.442;7.370;2023-02-20T04:27:16;15.27;;;8.50;;
71238;SDS011;61342;51.442;7.370;2023-02-20T04:28:17;15.60;;;8.70;;
71238;SDS011;61342;51.442;7.370;2023-02-20T04:29:18;13.93;;;9.10;;
71238;SDS011;61342;51.442;7.370;2023-02-20T04:30:19;14.87;;;8.43;;
71238;SDS011;61342;51.442;7.370;2023-02-20T04:31:20;15.77;;;9.17;;
71238;SDS011;61342;51.442;7.370;2023-02-20T04:32:20;16.57;;;8.33;;
71238;SDS011;61342;51.442;7.370;2023-02-20T04:33:20;14.10;;;8.37;;
71238;SDS011;61342;51.442;7.370;2023-02-20T04:34:22;15.07;;;9.03;;
71238;SDS011;61342;51.442;7.370;2023-02-20T04:35:22;17.83;;;9.00;;
71238;SDS011;61342;51.442;7.370;2023-02-20T04:36:23;13.33;;;8.23;;
71238;SDS011;61342;51.442;7.370;2023-02-20T04:37:24;13.27;;;7.83;;
71238;SDS011;61342;51.442;7.370;2023-02-20T04:38:25;12.40;;;7.70;;
71238;SDS011;61342;51.442;7.370;2023-02-20T04:39:25;13.97;;;8.07;;
71238;SDS011;61342;51.442;7.370;2023-02-20T04:40:25;14.10;;;8.10;;
71238;SDS011;61342;51.442;7.370;2023-02-20T04:41:26;10.63;;;7.73;;
71238;SDS011;61342;51.442;7.370;2023-02-20T04:42:26;10.87;;;7.73;;
71238;SDS011;61342;51.442;7.370;2023-02-20T04:43:27;13.53;;;7.57;;
71238;SDS011;61342;51.442;7.370;2023-02-20T04:44:27;12.57;;;7.67;;
71238;SDS011;61342;51.442;7.370;2023-02-20T04:45:30;13.33;;;8.17;;
71238;SDS011;61342;51.442;7.370;2023-02-20T04:46:30;14.13;;;7.43;;
71238;SDS011;61342;51.442;7.370;2023-02-20T04:47:31;15.27;;;7.80;;
71238;SDS011;61342;51.442;7.370;2023-02-20T04:48:31;16.50;;;7.60;;
71238;SDS011;61342;51.442;7.370;2023-02-20T04:49:31;14.27;;;7.40;;
71238;SDS011;61342;51.442;7.370;2023-02-20T04:50:32;13.50;;;7.57;;
71238;SDS011;61342;51.442;7.370;2023-02-20T04:51:33;16.80;;;7.23;;
71238;SDS011;61342;51.442;7.370;2023-02-20T04:52:34;12.00;;;8.13;;
71238;SDS011;61342;51.442;7.370;2023-02-20T04:53:34;14.20;;;7.70;;
71238;SDS011;61342;51.442;7.370;2023-02-20T04:54:34;12.73;;;7.67;;
71238;SDS011;61342;51.442;7.370;2023-02-20T04:55:34;11.13;;;6.67;;
71238;SDS011;61342;51.442;7.370;2023-02-20T04:56:35;16.27;;;7.27;;
71238;SDS011;61342;51.442;7.370;2023-02-20T04:57:35;15.83;;;8.00;;
71238;SDS011;61342;51.442;7.370;2023-02-20T04:58:35;15.80;;;8.07;;
71238;SDS011;61342;51.442;7.370;2023-02-20T04:59:36;14.80;;;8.23;;
71238;SDS011;61342;51.442;7.370;2023-02-20T05:00:36;16.33;;;8.10;;
71238;SDS011;61342;51.442;7.370;2023-02-20T05:01:37;13.10;;;7.30;;
71238;SDS011;61342;51.442;7.370;2023-02-20T05:02:38;13.50;;;7.20;;
71238;SDS011;61342;51.442;7.370;2023-02-20T05:03:39;15.93;;;7.90;;
71238;SDS011;61342;51.442;7.370;2023-02-20T06:56:37;10.50;;;8.20;;
71238;SDS011;61342;51.442;7.370;2023-02-20T06:57:38;14.80;;;8.80;;
71238;SDS011;61342;51.442;7.370;2023-02-20T07:00:39;15.13;;;10.23;;
71238;SDS011;61342;51.442;7.370;2023-02-20T07:01:41;16.33;;;10.90;;
71238;SDS011;61342;51.442;7.370;2023-02-20T07:02:42;15.97;;;10.63;;
71238;SDS011;61342;51.442;7.370;2023-02-20T07:03:43;17.73;;;10.67;;
71238;SDS011;61342;51.442;7.370;2023-02-20T07:04:48;14.37;;;11.20;;
71238;SDS011;61342;51.442;7.370;2023-02-20T07:05:49;18.33;;;11.67;;
71238;SDS011;61342;51.442;7.370;2023-02-20T07:06:51;16.47;;;10.77;;
71238;SDS011;61342;51.442;7.370;2023-02-20T07:07:54;16.17;;;11.40;;
71238;SDS011;61342;51.442;7.370;2023-02-20T07:08:57;14.67;;;11.37;;
71238;SDS011;61342;51.442;7.370;2023-02-20T07:09:57;18.97;;;11.10;;
71238;SDS011;61342;51.442;7.370;2023-02-20T07:11:00;14.43;;;10.13;;
71238;SDS011;61342;51.442;7.370;2023-02-20T07:12:03;16.47;;;11.10;;
71238;SDS011;61342;51.442;7.370;2023-02-20T07:13:09;15.60;;;10.63;;
71238;SDS011;61342;51.442;7.370;2023-02-20T07:14:27;16.13;;;10.50;;
71238;SDS011;61342;51.442;7.370;2023-02-20T07:15:49;13.87;;;10.00;;
71238;SDS011;61342;51.442;7.370;2023-02-20T07:16:49;21.30;;;11.03;;
71238;SDS011;61342;51.442;7.370;2023-02-20T07:17:50;15.83;;;10.90;;
71238;SDS011;61342;51.442;7.370;2023-02-20T07:18:53;15.70;;;10.53;;
71238;SDS011;61342;51.442;7.370;2023-02-20T07:19:53;18.03;;;11.10;;
71238;SDS011;61342;51.442;7.370;2023-02-20T07:20:54;16.20;;;10.40;;
71238;SDS011;61342;51.442;7.370;2023-02-20T07:21:54;16.23;;;9.93;;
71238;SDS011;61342;51.442;7.370;2023-02-20T07:22:55;19.03;;;10.27;;
71238;SDS011;61342;51.442;7.370;2023-02-20T07:23:55;20.37;;;10.93;;
71238;SDS011;61342;51.442;7.370;2023-02-20T07:24:56;18.17;;;10.43;;
71238;SDS011;61342;51.442;7.370;2023-02-20T07:25:56;15.73;;;10.13;;
71238;SDS011;61342;51.442;7.370;2023-02-20T07:26:57;17.00;;;11.00;;
71238;SDS011;61342;51.442;7.370;2023-02-20T07:27:57;20.03;;;10.77;;
71238;SDS011;61342;51.442;7.370;2023-02-20T07:28:57;18.77;;;10.73;;
71238;SDS011;61342;51.442;7.370;2023-02-20T07:30:07;17.00;;;11.30;;
71238;SDS011;61342;51.442;7.370;2023-02-20T07:31:28;16.63;;;11.30;;
71238;SDS011;61342;51.442;7.370;2023-02-20T07:36:05;14.90;;;10.47;;
71238;SDS011;61342;51.442;7.370;2023-02-20T07:37:06;17.03;;;10.83;;
71238;SDS011;61342;51.442;7.370;2023-02-20T07:38:06;14.23;;;10.33;;
71238;SDS011;61342;51.442;7.370;2023-02-20T07:39:07;17.07;;;10.13;;
71238;SDS011;61342;51.442;7.370;2023-02-20T07:40:07;16.60;;;10.87;;
71238;SDS011;61342;51.442;7.370;2023-02-20T07:41:08;16.80;;;11.20;;
71238;SDS011;61342;51.442;7.370;2023-02-20T07:42:09;15.33;;;10.37;;
71238;SDS011;61342;51.442;7.370;2023-02-20T07:43:10;17.60;;;10.30;;
71238;SDS011;61342;51.442;7.370;2023-02-20T07:44:10;16.67;;;11.00;;
71238;SDS011;61342;51.442;7.370;2023-02-20T07:45:13;14.47;;;11.63;;
71238;SDS011;61342;51.442;7.370;2023-02-20T07:46:24;17.47;;;11.23;;
71238;SDS011;61342;51.442;7.370;2023-02-20T07:47:25;18.00;;;10.50;;
71238;SDS011;61342;51.442;7.370;2023-02-20T07:48:25;20.57;;;11.57;;
71238;SDS011;61342;51.442;7.370;2023-02-20T07:49:28;19.90;;;11.67;;
71238;SDS011;61342;51.442;7.370;2023-02-20T07:50:28;16.23;;;10.80;;
71238;SDS011;61342;51.442;7.370;2023-02-20T07:51:29;16.43;;;11.13;;
71238;SDS011;61342;51.442;7.370;2023-02-20T07:52:32;16.93;;;11.70;;
71238;SDS011;61342;51.442;7.370;2023-02-20T07:53:35;15.20;;;10.90;;
71238;SDS011;61342;51.442;7.370;2023-02-20T07:54:35;17.90;;;10.30;;
71238;SDS011;61342;51.442;7.370;2023-02-20T07:55:36;21.10;;;12.03;;
71238;SDS011;61342;51.442;7.370;2023-02-20T07:56:36;17.47;;;11.07;;
71238;SDS011;61342;51.442;7.370;2023-02-20T07:57:38;12.50;;;10.23;;
71238;SDS011;61342;51.442;7.370;2023-02-20T07:58:39;18.33;;;11.27;;
71238;SDS011;61342;51.442;7.370;2023-02-20T07:59:40;18.53;;;10.90;;
71238;SDS011;61342;51.442;7.370;2023-02-20T08:00:40;18.77;;;11.73;;
71238;SDS011;61342;51.442;7.370;2023-02-20T08:01:40;16.47;;;10.57;;
71238;SDS011;61342;51.442;7.370;2023-02-20T08:02:41;16.70;;;10.90;;
71238;SDS011;61342;51.442;7.370;2023-02-20T08:03:41;18.93;;;10.70;;
71238;SDS011;61342;51.442;7.370;2023-02-20T08:04:41;16.00;;;10.43;;
71238;SDS011;61342;51.442;7.370;2023-02-20T08:05:42;15.13;;;10.50;;
71238;SDS011;61342;51.442;7.370;2023-02-20T08:06:43;15.30;;;10.80;;
71238;SDS011;61342;51.442;7.370;2023-02-20T08:07:44;18.70;;;10.93;;
71238;SDS011;61342;51.442;7.370;2023-02-20T08:08:51;13.97;;;11.50;;
71238;SDS011;61342;51.442;7.370;2023-02-20T08:09:54;17.47;;;11.57;;
71238;SDS011;61342;51.442;7.370;2023-02-20T08:10:54;17.80;;;11.40;;
71238;SDS011;61342;51.442;7.370;2023-02-20T08:11:54;17.87;;;12.37;;
71238;SDS011;61342;51.442;7.370;2023-02-20T08:12:55;15.40;;;10.87;;
71238;SDS011;61342;51.442;7.370;2023-02-20T08:13:55;17.23;;;11.60;;
71238;SDS011;61342;51.442;7.370;2023-02-20T08:14:56;17.47;;;12.50;;
71238;SDS011;61342;51.442;7.370;2023-02-20T08:15:56;16.93;;;10.90;;
71238;SDS011;61342;51.442;7.370;2023-02-20T08:16:57;18.63;;;12.40;;
71238;SDS011;61342;51.442;7.370;2023-02-20T08:17:57;22.57;;;12.10;;
71238;SDS011;61342;51.442;7.370;2023-02-20T08:18:58;16.23;;;11.87;;
71238;SDS011;61342;51.442;7.370;2023-02-20T08:19:59;16.90;;;11.00;;
71238;SDS011;61342;51.442;7.370;2023-02-20T08:20:59;19.60;;;11.60;;
71238;SDS011;61342;51.442;7.370;2023-02-20T08:21:59;16.53;;;10.60;;
71238;SDS011;61342;51.442;7.370;2023-02-20T08:23:00;17.57;;;10.87;;
71238;SDS011;61342;51.442;7.370;2023-02-20T08:24:00;15.70;;;10.50;;
71238;SDS011;61342;51.442;7.370;2023-02-20T08:25:00;17.40;;;12.37;;
71238;SDS011;61342;51.442;7.370;2023-02-20T08:26:03;15.70;;;11.00;;
71238;SDS011;61342;51.442;7.370;2023-02-20T08:27:04;17.47;;;11.30;;
71238;SDS011;61342;51.442;7.370;2023-02-20T08:28:05;16.63;;;11.27;;
71238;SDS011;61342;51.442;7.370;2023-02-20T08:29:05;14.07;;;11.43;;
71238;SDS011;61342;51.442;7.370;2023-02-20T08:30:05;18.90;;;11.47;;
71238;SDS011;61342;51.442;7.370;2023-02-20T08:31:06;15.77;;;11.43;;
71238;SDS011;61342;51.442;7.370;2023-02-20T08:32:07;16.30;;;11.33;;
71238;SDS011;61342;51.442;7.370;2023-02-20T08:33:07;16.07;;;11.10;;
71238;SDS011;61342;51.442;7.370;2023-02-20T08:34:07;15.63;;;11.87;;
71238;SDS011;61342;51.442;7.370;2023-02-20T08:35:08;19.70;;;13.93;;
71238;SDS011;61342;51.442;7.370;2023-02-20T08:36:08;14.17;;;11.30;;
71238;SDS011;61342;51.442;7.370;2023-02-20T08:37:09;15.50;;;11.07;;
71238;SDS011;61342;51.442;7.370;2023-02-20T08:39:22;14.30;;;10.43;;
71238;SDS011;61342;51.442;7.370;2023-02-20T08:40:22;15.93;;;11.50;;
71238;SDS011;61342;51.442;7.370;2023-02-20T08:41:23;14.37;;;11.37;;
71238;SDS011;61342;51.442;7.370;2023-02-20T08:42:23;17.67;;;10.97;;
71238;SDS011;61342;51.442;7.370;2023-02-20T08:43:24;15.53;;;10.93;;
71238;SDS011;61342;51.442;7.370;2023-02-20T08:44:24;19.57;;;11.70;;